Gandeeville, West Virginia
Current Conditions -  °F | °C
As of 7:54 AM on Friday 31 Oct 2014 (Local Time) from KCRW Reporting Station
Haze Haze  
Wind Chill: 33°   Ceiling: Unl
Heat Index: 33°   Visibility: 1mi
Dew Point: 32°   Wind: 3mph
Humidity: 96%   Direction: 130°SE
Pressure: 29.98"   Gusts: NA
Location:  38.71°N, 81.41°W
Report Text: KCRW 311154Z 13003KT 1SM BR SCT001 SCT050 SCT140 SCT300 01/00 A2998 RMK AO2 SLP156 DNS VLY FG T00060000 10022 20006 56007 RVRNO
Loading
Personal Weather Stations






























Interactive Weather Map
Tropical Storm Tracking
New forecast layout! Learn more

10-Day Weather Forecast

Advertisements
Track Severe Weather on mobile